Terminal Aerodrome Forecast
Issued by NWS Grand Rapids, MI

Home | Current Version | Previous Version | Text Only | Print | Product List | Glossary On
Versions: 1 2 3 4 5 6 7 8 9 10 11 12 13 14 15 16 17 18 19 20
864
FTUS43 KGRR 082341
TAFGRR
TAF
KGRR 082341Z 0900/0924 26008KT 3SM -SN BR BKN009 BKN045 OVC070
      TEMPO 0900/0903 2SM -SHSN OVC009
     FM090300 27011KT P6SM BKN040
     FM091500 29009KT 4SM -SN OVC025=

USA.gov is the U.S. government's official web portal to all federal, state and local government web resources and services.